Qingyuan, China
Current Conditions -  °F | °C
As of 7:00 AM on Saturday 25 Oct 2014 (Local Time) from ZYTX Reporting Station
Broken Clouds Broken Clouds  
Wind Chill: 64°   Ceiling: 4000
Heat Index: 64°   Visibility: 4mi
Dew Point: 54°   Wind: 9mph
Humidity: 68%   Direction: 180°S
Pressure: 29.85"   Gusts: NA
Location:  42.1°N, 124.95°E
Report Text: ZYTX 242300Z 18004MPS 150V210 6000 BKN040 18/12 Q1011 NOSIG
Loading
Personal Weather Stations






























Interactive Weather Map
Tropical Storm Tracking
New forecast layout! Learn more

10-Day Weather Forecast

Advertisements
Track Severe Weather on mobile